Flight Track Log - Related Links

Times and Time Zones

All times are in EDT time to prevent confusion due to time zone crossing. See the FSR411 flight status page for this flight to view local times or setup timezone preferences in your user account.

Time Position Orientation Groundspeed Altitude Reporting Facility
EDT Latitude Longitude Course Direction KTS MPH feet Rate Location/Type
Sun 05:19:20 PM 25.2753 -80.3033 86° East 181 208 1,600  Level Miami Center
Sun 05:20:28 PM 25.2789 -80.2392 86° East 256 295 2,300 1,556 Climbing Miami Center
Sun 05:21:35 PM 25.3453 -80.2617 343° North 226 260 5,100 2,852 Climbing Miami Center
Sun 05:22:30 PM 25.3944 -80.2975 327° Northwest 231 266 8,100 2,917 Climbing Miami Center
Sun 05:22:47 PM 25.4131 -80.3050 340° North 229 264 8,600 3,148 Climbing Miami Center
Sun 05:23:31 PM 25.4561 -80.3408 323° Northwest 270 311 11,300 3,300 Climbing Miami Center
Sun 05:23:47 PM 25.4789 -80.3506 339° North 276 318 11,900 3,313 Climbing Miami Center
Sun 05:24:38 PM 25.5406 -80.3939 328° Northwest 321 369 15,000 2,376 Climbing Miami Center
Sun 05:25:28 PM 25.6083 -80.4394 329° Northwest 373 429 15,900 870 Climbing Miami Center
Sun 05:25:47 PM 25.6308 -80.4542 329° Northwest 374 430 16,000  Climbing Miami Center
Sun 05:26:47 PM 25.7358 -80.5172 332° Northwest 395 455 15,900 250 Descending Miami Center
Sun 05:27:47 PM 25.8242 -80.5775 328° Northwest 389 448 16,500 1,750 Climbing Miami Center
Sun 05:28:47 PM 25.9167 -80.6381 330° Northwest 383 441 19,400 2,700 Climbing Miami Center
Sun 05:29:47 PM 26.0133 -80.6989 331° Northwest 383 441 21,900 3,000 Climbing Miami Center
Sun 05:30:47 PM 26.1097 -80.7622 329° Northwest 397 457 25,400 3,200 Climbing Miami Center
Sun 05:31:47 PM 26.1981 -80.8206 329° Northwest 392 451 28,300 2,550 Climbing Miami Center
Sun 05:32:47 PM 26.2861 -80.8792 329° Northwest 375 432 30,500 2,000 Climbing Miami Center
Sun 05:33:47 PM 26.3878 -80.9036 348° North 364 419 32,300 1,700 Climbing Miami Center
Sun 05:34:47 PM 26.4833 -80.9183 352° North 377 434 33,900 1,500 Climbing Miami Center
Sun 05:35:47 PM 26.5875 -80.9358 351° North 377 434 35,300 1,300 Climbing Miami Center
Sun 05:36:47 PM 26.6756 -80.9900 331° Northwest 364 419 36,500 1,250 Climbing Miami Center
Sun 05:37:47 PM 26.7697 -81.0561 328° Northwest 357 411 37,800 1,250 Climbing Miami Center
Sun 05:38:47 PM 26.8558 -81.1175 328° Northwest 362 417 39,000 1,300 Climbing Miami Center
Sun 05:39:47 PM 26.9394 -81.1764 328° Northwest 362 417 40,400 1,250 Climbing Miami Center
Sun 05:40:47 PM 27.0153 -81.2236 331° Northwest 350 403 41,500 1,000 Climbing Miami Center
Sun 05:41:47 PM 27.0992 -81.2850 327° Northwest 345 397 42,400 700 Climbing Miami Center
Sun 05:42:47 PM 27.1789 -81.3394 329° Northwest 340 391 42,900 300 Climbing Miami Center
Sun 05:43:47 PM 27.2606 -81.3939 329° Northwest 340 391 43,000 50 Climbing Miami Center
Sun 05:44:47 PM 27.3422 -81.4533 327° Northwest 345 397 43,000  Level Miami Center
Sun 05:45:47 PM 27.4219 -81.5056 330° Northwest 351 404 43,000  Level Miami Center
Sun 05:48:17 PM 27.6350 -81.6514 329° Northwest 357 411 43,000  Level Jacksonville Center
Sun 05:49:17 PM 27.7253 -81.7111 330° Northwest 370 426 43,000  Level Jacksonville Center
Sun 05:50:17 PM 27.8133 -81.7711 329° Northwest 370 426 43,000  Level Jacksonville Center
Sun 05:51:17 PM 27.9014 -81.8336 328° Northwest 370 426 43,000  Level Jacksonville Center
Sun 05:52:17 PM 27.9897 -81.8983 327° Northwest 370 426 43,000  Level Jacksonville Center
Sun 05:53:17 PM 28.0756 -81.9586 328° Northwest 370 426 43,000  Level Jacksonville Center
Sun 05:54:17 PM 28.1617 -82.0214 327° Northwest 370 426 43,000  Level Jacksonville Center
Sun 05:55:17 PM 28.2600 -82.0700 336° Northwest 370 426 43,000  Level Jacksonville Center
Sun 05:56:17 PM 28.3583 -82.1142 338° Northwest 375 432 43,000  Level Jacksonville Center
Sun 05:57:17 PM 28.4567 -82.1606 337° Northwest 381 438 43,000  Level Jacksonville Center
Sun 05:58:17 PM 28.5528 -82.2000 340° North 376 433 43,000  Level Jacksonville Center
Sun 05:59:17 PM 28.6511 -82.2467 337° Northwest 376 433 43,000  Level Jacksonville Center
Sun 06:00:17 PM 28.7475 -82.2911 338° Northwest 376 433 43,000  Level Jacksonville Center
Sun 06:01:17 PM 28.8436 -82.3381 337° Northwest 376 433 43,000  Level Jacksonville Center
Sun 06:02:17 PM 28.9503 -82.3847 339° North 371 427 43,000  Level Jacksonville Center
Sun 06:03:17 PM 29.0464 -82.4294 338° Northwest 371 427 43,000  Level Jacksonville Center
Sun 06:04:17 PM 29.1447 -82.4742 338° Northwest 371 427 43,000  Level Jacksonville Center
Sun 06:05:17 PM 29.2408 -82.5214 337° Northwest 376 433 43,000  Level Jacksonville Center
Sun 06:06:17 PM 29.3411 -82.5661 339° North 376 433 43,000  Level Jacksonville Center
Sun 06:07:17 PM 29.4375 -82.6136 337° Northwest 376 433 43,000  Level Jacksonville Center
Sun 06:08:17 PM 29.5294 -82.6586 337° Northwest 376 433 43,000  Level Jacksonville Center
Sun 06:09:17 PM 29.6275 -82.7039 338° Northwest 381 438 43,000  Level Jacksonville Center
Sun 06:10:17 PM 29.7258 -82.7492 338° Northwest 381 438 43,000  Level Jacksonville Center
Sun 06:11:17 PM 29.8239 -82.7944 338° Northwest 375 432 43,000  Level Jacksonville Center
Sun 06:12:17 PM 29.9200 -82.8422 337° Northwest 375 432 43,000  Level Jacksonville Center
Sun 06:13:17 PM 30.0306 -82.8878 340° North 375 432 43,000  Level Jacksonville Center
Sun 06:14:17 PM 30.1203 -82.9333 336° Northwest 381 438 43,000  Level Jacksonville Center
Sun 06:15:17 PM 30.2164 -82.9792 338° Northwest 381 438 43,000  Level Jacksonville Center
Sun 06:16:17 PM 30.3144 -83.0250 338° Northwest 375 432 43,000  Level Jacksonville Center
Sun 06:17:17 PM 30.4147 -83.0733 337° Northwest 375 432 43,000  Level Jacksonville Center
Sun 06:18:17 PM 30.5147 -83.1192 338° Northwest 375 432 43,000  Level Jacksonville Center
Sun 06:19:17 PM 30.6128 -83.1678 337° Northwest 375 432 43,000  Level Jacksonville Center
Sun 06:20:17 PM 30.7108 -83.2139 338° Northwest 375 432 43,000  Level Jacksonville Center
Sun 06:21:17 PM 30.8131 -83.2628 338° Northwest 380 437 43,000  Level Jacksonville Center
Sun 06:22:17 PM 30.9194 -83.3164 337° Northwest 380 437 43,000  Level Jacksonville Center
Sun 06:23:17 PM 31.0172 -83.3628 338° Northwest 374 430 43,000  Level Jacksonville Center
Sun 06:24:17 PM 31.1172 -83.4119 337° Northwest 379 436 43,000  Level Jacksonville Center
Sun 06:25:17 PM 31.2172 -83.4611 337° Northwest 379 436 43,000  Level Jacksonville Center
Sun 06:27:41 PM 31.4556 -83.5789 337° Northwest 383 441 43,000  Level Atlanta Center
Sun 06:28:41 PM 31.5497 -83.6244 338° Northwest 378 435 43,000  Level Atlanta Center
Sun 06:29:41 PM 31.6375 -83.6633 339° North 378 435 43,000  Level Atlanta Center
Sun 06:30:41 PM 31.7336 -83.7142 336° Northwest 371 427 43,000  Level Atlanta Center
Sun 06:31:41 PM 31.8403 -83.7650 338° Northwest 377 434 43,000  Level Atlanta Center
Sun 06:32:41 PM 31.9364 -83.8136 337° Northwest 376 433 43,000  Level Atlanta Center
Sun 06:33:41 PM 32.0283 -83.8600 337° Northwest 366 421 43,000  Level Atlanta Center
Sun 06:34:41 PM 32.1200 -83.9039 338° Northwest 360 414 43,000  Level Atlanta Center
Sun 06:35:41 PM 32.2161 -83.9506 338° Northwest 360 414 43,000  Level Atlanta Center
Sun 06:36:41 PM 32.3122 -83.9994 337° Northwest 360 414 43,000  Level Atlanta Center
Sun 06:37:41 PM 32.4083 -84.0486 337° Northwest 360 414 43,000  Level Atlanta Center
Sun 06:38:41 PM 32.5042 -84.0956 338° Northwest 365 420 43,000  Level Atlanta Center
Sun 06:39:41 PM 32.6022 -84.1450 337° Northwest 375 432 43,000  Level Atlanta Center
Sun 06:40:41 PM 32.7003 -84.1969 336° Northwest 375 432 43,000  Level Atlanta Center
Sun 06:41:41 PM 32.7964 -84.2414 339° North 375 432 43,000  Level Atlanta Center
Sun 06:42:41 PM 32.8964 -84.2961 335° Northwest 386 444 43,000  Level Atlanta Center
Sun 06:43:41 PM 32.9922 -84.3483 335° Northwest 386 444 43,000  Level Atlanta Center
Sun 06:44:41 PM 33.0944 -84.3983 338° Northwest 386 444 43,000  Level Atlanta Center
Sun 06:45:41 PM 33.1819 -84.4458 336° Northwest 386 444 43,000  Level Atlanta Center
Sun 06:46:41 PM 33.2819 -84.4936 338° Northwest 386 444 43,000  Level Atlanta Center
Sun 06:47:41 PM 33.3842 -84.5464 337° Northwest 392 451 43,000  Level Atlanta Center
Sun 06:48:41 PM 33.4819 -84.5967 337° Northwest 392 451 43,000  Level Atlanta Center
Sun 06:49:41 PM 33.5819 -84.6472 337° Northwest 386 444 43,000  Level Atlanta Center
Sun 06:50:41 PM 33.6881 -84.7003 337° Northwest 386 444 43,000  Level Atlanta Center
Sun 06:51:41 PM 33.7839 -84.7486 337° Northwest 380 437 43,000  Level Atlanta Center
Sun 06:52:41 PM 33.8817 -84.7994 337° Northwest 380 437 43,000  Level Atlanta Center
Sun 06:53:41 PM 33.9836 -84.8556 335° Northwest 389 448 43,000  Level Atlanta Center
Sun 06:54:41 PM 34.0814 -84.9017 339° North 391 450 43,000  Level Atlanta Center
Sun 06:55:41 PM 34.1686 -84.9478 336° Northwest 391 450 43,000  Level Atlanta Center
Sun 06:56:41 PM 34.2664 -84.9964 338° Northwest 386 444 43,000  Level Atlanta Center
Sun 06:57:41 PM 34.3642 -85.0478 337° Northwest 378 435 43,000  Level Atlanta Center
Sun 06:58:41 PM 34.4617 -85.0969 337° Northwest 378 435 43,000  Level Atlanta Center
Sun 06:59:41 PM 34.5594 -85.1486 336° Northwest 378 435 43,000  Level Atlanta Center
Sun 07:00:41 PM 34.6653 -85.2081 335° Northwest 372 428 43,000  Level Atlanta Center
Sun 07:01:41 PM 34.7650 -85.2625 336° Northwest 384 442 43,000  Level Atlanta Center
Sun 07:02:41 PM 34.8686 -85.3172 337° Northwest 389 448 43,000  Level Atlanta Center
Sun 07:03:44 PM 34.9686 -85.3681 337° Northwest 397 457 43,000  Level Memphis Center
Sun 07:04:45 PM 35.0664 -85.4211 336° Northwest 390 449 43,000  Level Memphis Center
Sun 07:05:47 PM 35.1625 -85.4722 337° Northwest 382 440 43,000  Level Memphis Center
Sun 07:06:48 PM 35.2675 -85.5286 336° Northwest 381 438 43,000  Level Memphis Center
Sun 07:07:50 PM 35.3564 -85.5764 336° Northwest 381 438 43,000  Level Memphis Center
Sun 07:08:52 PM 35.4533 -85.6292 336° Northwest 380 437 43,000  Level Memphis Center
Sun 07:09:53 PM 35.5508 -85.6811 337° Northwest 380 437 43,000  Level Memphis Center
Sun 07:10:55 PM 35.6661 -85.7444 336° Northwest 380 437 43,000  Level Memphis Center
Sun 07:11:56 PM 35.7631 -85.7975 336° Northwest 380 437 43,000  Level Memphis Center
Sun 07:12:58 PM 35.8594 -85.8506 336° Northwest 379 436 43,000  Level Memphis Center
Sun 07:13:59 PM 35.9650 -85.9067 337° Northwest 380 437 43,000  Level Memphis Center
Sun 07:15:01 PM 36.0633 -85.9611 336° Northwest 380 437 43,000  Level Memphis Center
Sun 07:16:03 PM 36.1617 -86.0147 336° Northwest 381 438 43,000  Level Memphis Center
Sun 07:17:04 PM 36.2608 -86.0697 336° Northwest 382 440 43,000  Level Memphis Center
Sun 07:18:06 PM 36.3597 -86.1236 336° Northwest 384 442 43,000  Level Memphis Center
Sun 07:19:08 PM 36.4581 -86.1789 336° Northwest 384 442 43,000  Level Memphis Center
Sun 07:20:09 PM 36.5572 -86.2328 336° Northwest 384 442 43,000  Level Memphis Center
Sun 07:21:11 PM 36.6553 -86.2881 336° Northwest 384 442 43,000  Level Memphis Center
Sun 07:22:13 PM 36.7542 -86.3444 335° Northwest 385 443 43,000  Level Memphis Center
Sun 07:23:14 PM 36.8708 -86.4089 336° Northwest 386 444 43,000  Level Memphis Center
Sun 07:24:16 PM 36.9708 -86.4647 336° Northwest 388 447 43,000  Level Memphis Center
Sun 07:25:17 PM 37.0697 -86.5217 335° Northwest 388 447 43,000  Level Memphis Center
Sun 07:26:19 PM 37.1706 -86.5789 336° Northwest 390 449 43,000  Level Memphis Center
Sun 07:27:20 PM 37.2722 -86.6358 336° Northwest 394 453 43,000  Level Memphis Center
Sun 07:28:22 PM 37.3728 -86.6928 336° Northwest 394 453 43,000  Level Memphis Center
Sun 07:29:23 PM 37.4747 -86.7528 335° Northwest 395 455 43,000  Level Memphis Center
Sun 07:30:25 PM 37.5764 -86.8108 336° Northwest 398 458 43,000  Level Memphis Center
Sun 07:31:27 PM 37.6778 -86.8683 336° Northwest 398 458 43,000  Level Memphis Center
Sun 07:32:49 PM 37.8219 -86.9517 335° Northwest 396 456 43,000  Level Indianapolis Center
Sun 07:33:51 PM 37.9233 -87.0103 335° Northwest 397 457 43,000  Level Indianapolis Center
Sun 07:34:53 PM 38.0258 -87.0697 335° Northwest 397 457 43,000 -532 Level Indianapolis Center
Sun 07:35:55 PM 38.1283 -87.1294 335° Northwest 399 459 41,900 -1,258 Descending Indianapolis Center
Sun 07:36:57 PM 38.2342 -87.1906 336° Northwest 401 461 40,400 -1,500 Descending Indianapolis Center
Sun 07:37:59 PM 38.3508 -87.2578 336° Northwest 424 488 38,800 -1,756 Descending Indianapolis Center
Sun 07:39:00 PM 38.4781 -87.3067 343° North 465 535 36,800 -1,951 Descending Indianapolis Center
Sun 07:40:02 PM 38.6008 -87.3583 342° North 465 535 34,800 -2,419 Descending Indianapolis Center
Sun 07:41:04 PM 38.7503 -87.4253 341° North 465 535 31,800 -2,661 Descending Indianapolis Center
Sun 07:42:06 PM 38.8703 -87.4836 339° North 463 533 29,300 -2,323 Descending Indianapolis Center
Sun 07:43:08 PM 38.9842 -87.5417 338° Northwest 445 512 27,000 -2,226 Descending Indianapolis Center
Sun 07:44:10 PM 39.0844 -87.6161 330° Northwest 421 484 24,700 -2,274 Descending Indianapolis Center
Sun 07:45:12 PM 39.1828 -87.6822 332° Northwest 405 466 22,300 -2,613 Descending Indianapolis Center
Sun 07:46:14 PM 39.2778 -87.7478 332° Northwest 393 452 19,300 -3,000 Descending Indianapolis Center
Sun 07:47:16 PM 39.3794 -87.8183 332° Northwest 378 435 16,100 -2,758 Descending Indianapolis Center
Sun 07:48:18 PM 39.4761 -87.8836 332° Northwest 384 442 13,600 -2,226 Descending Indianapolis Center
Sun 07:49:20 PM 39.5675 -87.9478 332° Northwest 377 434 11,500 -1,984 Descending Indianapolis Center
Sun 07:50:22 PM 39.6450 -88.0000 333° Northwest 329 379 9,500 -1,887 Descending Indianapolis Center
Sun 07:51:24 PM 39.7153 -88.0508 331° Northwest 299 344 7,600 -1,659 Descending Indianapolis Center
Sun 07:52:25 PM 39.7911 -88.1039 332° Northwest 289 333 6,100 -1,475 Descending Indianapolis Center
Sun 07:55:00 PM 39.9620 -88.2173 330° Northwest  Level FlightAware Approximate
Sun 08:02:00 PM 40.0333 -88.2667 333° Northwest  Level FlightAware Approximate
Sun 08:03:00 PM 40.0388 -88.2778 333° Northwest  Level Estimated
Sun 08:04:00 PM 40.0388 -88.2778 333° Northwest  Level Estimated
Sun 08:05:00 PM 40.0388 -88.2778 333° Northwest  Level Estimated
Sun 08:06:00 PM 40.0388 -88.2778 333° Northwest  Level Estimated

Login

Don't have an account? Register now (free) for customized features, flight alerts, and more!